Mineral Point, Pennsylvania
Current Conditions -  °F | °C
As of 11:54 PM on Monday 20 Oct 2014 (Local Time) from KJST Reporting Station
Overcast Overcast  
Wind Chill: 45°   Ceiling: 2600
Heat Index: 49°   Visibility: 10mi
Dew Point: 41°   Wind: 10mph
Humidity: 74%   Direction: 240°WSW
Pressure: 29.88"   Gusts: NA
Location:  40.38°N, 78.84°W
Report Text: KJST 210354Z AUTO 24009KT 10SM FEW021 BKN026 OVC039 09/05 A2988 RMK AO2 SLP123 T00940050
Loading
Personal Weather Stations






























Interactive Weather Map New forecast layout! Learn more

10-Day Weather Forecast

Advertisements
Track Severe Weather on mobile